Time;durP1;ratioP1;P1;durP2;ratioP2;P2;SDS_P1;SDS_P2;PMS_P1;PMS_P2;Temp;Humidity;BMP_temperature;BMP_pressure;BME280_temperature;BME280_humidity;BME280_pressure;Samples;Min_cycle;Max_cycle;Signal;HPM_P1;HPM_P2
2021/07/26 00:00:59;;;;;;;6.85;3.28;;;;;;;22.21;53.46;100733.03;5030411;28;20029;-64
2021/07/26 00:03:24;;;;;;;7.68;3.28;;;;;;;22.06;53.86;100734.00;5030706;28;20115;-65
2021/07/26 00:05:57;;;;;;;7.47;3.25;;;;;;;21.45;55.54;100736.88;5030582;28;20160;-63
2021/07/26 00:08:23;;;;;;;9.43;3.78;;;;;;;21.15;56.17;100727.38;5030179;28;20041;-64
2021/07/26 00:11:09;;;;;;;9.40;3.35;;;;;;;20.96;56.34;100732.66;5033297;28;20400;-67
2021/07/26 00:13:36;;;;;;;13.18;3.90;;;;;;;21.04;56.39;100735.25;5034051;28;20036;-65
2021/07/26 00:16:02;;;;;;;8.48;3.65;;;;;;;21.15;55.59;100732.59;5033767;28;20053;-62
2021/07/26 00:18:28;;;;;;;11.75;3.45;;;;;;;21.32;55.35;100733.44;5034246;28;20022;-66
2021/07/26 00:20:55;;;;;;;8.52;3.70;;;;;;;21.62;54.05;100733.34;5033726;28;20020;-67
2021/07/26 00:23:21;;;;;;;9.23;3.75;;;;;;;21.78;53.33;100731.50;5028619;28;20034;-65
2021/07/26 00:25:47;;;;;;;10.43;3.75;;;;;;;21.89;53.57;100734.09;5025315;28;20017;-67
2021/07/26 00:28:12;;;;;;;13.45;4.60;;;;;;;21.77;53.28;100740.28;5033664;28;20120;-67
2021/07/26 00:30:38;;;;;;;15.43;3.78;;;;;;;21.32;53.96;100699.28;5033456;28;20511;-68
2021/07/26 00:36:25;;;;;;;8.75;3.20;;;;;;;21.58;53.63;100728.97;5033624;28;20484;-65
2021/07/26 00:38:50;;;;;;;10.15;3.53;;;;;;;21.42;52.75;100731.66;5033622;28;20025;-65
2021/07/26 00:41:16;;;;;;;12.43;3.72;;;;;;;21.40;53.15;100730.78;5015739;28;20464;-62
2021/07/26 00:43:42;;;;;;;11.48;3.35;;;;;;;21.48;52.92;100736.00;5033304;28;20478;-65
2021/07/26 00:46:07;;;;;;;9.45;3.25;;;;;;;21.54;52.64;100741.22;5033144;28;20027;-65
2021/07/26 00:48:33;;;;;;;7.50;3.17;;;;;;;21.74;52.21;100729.78;5033396;28;20393;-62
2021/07/26 00:50:58;;;;;;;5.57;3.00;;;;;;;21.68;51.86;100706.16;5014508;28;20044;-65
2021/07/26 00:53:24;;;;;;;6.20;3.00;;;;;;;21.83;51.29;100731.50;5033029;28;20398;-66
2021/07/26 00:55:50;;;;;;;14.27;3.78;;;;;;;21.78;51.50;100721.88;5033475;28;20057;-62
2021/07/26 00:58:15;;;;;;;11.57;3.65;;;;;;;21.79;51.45;100722.75;5032909;28;20466;-65
2021/07/26 01:00:41;;;;;;;10.35;2.90;;;;;;;21.75;51.37;100727.16;5015040;28;20117;-67
2021/07/26 01:03:06;;;;;;;8.85;3.22;;;;;;;21.61;51.79;100713.22;5033064;28;20030;-66
2021/07/26 01:05:32;;;;;;;4.90;2.95;;;;;;;21.72;52.14;100732.44;5033185;28;20789;-66
2021/07/26 01:07:57;;;;;;;7.15;2.90;;;;;;;21.54;52.33;100735.09;5015022;28;20025;-66
2021/07/26 01:10:23;;;;;;;9.75;3.30;;;;;;;21.44;52.56;100729.88;5032804;28;20021;-66
2021/07/26 01:12:48;;;;;;;8.45;3.33;;;;;;;21.41;53.19;100729.91;5032816;28;20060;-65
2021/07/26 01:15:14;;;;;;;8.85;2.90;;;;;;;21.25;52.76;100733.47;5014833;28;20021;-62
2021/07/26 01:18:21;;;;;;;6.97;3.13;;;;;;;21.16;52.68;100723.88;5032993;28;20101;-67
2021/07/26 01:20:56;;;;;;;11.80;3.13;;;;;;;21.00;53.14;100694.16;4990355;28;20464;-62
2021/07/26 01:23:23;;;;;;;5.97;3.55;;;;;;;21.25;53.06;100707.22;4990909;28;20038;-63
2021/07/26 01:25:50;;;;;;;12.50;3.42;;;;;;;21.13;53.55;100705.47;4990444;28;20046;-62
2021/07/26 01:28:17;;;;;;;11.07;2.97;;;;;;;20.89;54.25;100712.53;4990699;28;20050;-63
2021/07/26 01:30:44;;;;;;;6.65;3.50;;;;;;;20.58;54.80;100686.31;4990857;28;20109;-62
2021/07/26 01:33:10;;;;;;;7.25;3.60;;;;;;;20.50;55.82;100725.66;4991047;28;20038;-62
2021/07/26 01:35:37;;;;;;;8.15;3.58;;;;;;;20.44;56.07;100723.03;4990677;28;20041;-63
2021/07/26 01:38:02;;;;;;;8.15;3.75;;;;;;;20.11;57.99;100727.38;4990176;28;20121;-64
2021/07/26 01:40:29;;;;;;;6.05;3.60;;;;;;;19.53;60.97;100731.53;4990419;28;20106;-64
2021/07/26 01:43:01;;;;;;;6.97;3.63;;;;;;;18.17;66.07;100735.78;4974444;28;20026;-64
2021/07/26 01:45:27;;;;;;;7.53;4.22;;;;;;;17.05;71.26;100735.25;4990489;28;20043;-64
2021/07/26 01:48:05;;;;;;;7.40;4.47;;;;;;;17.42;70.40;100730.53;4990604;28;20030;-63
2021/07/26 01:50:38;;;;;;;8.48;3.97;;;;;;;17.70;69.39;100723.91;4990016;28;20401;-61
2021/07/26 01:53:04;;;;;;;7.47;3.80;;;;;;;17.74;69.15;100719.59;4990368;28;20109;-66
2021/07/26 01:55:30;;;;;;;5.35;3.90;;;;;;;17.77;69.21;100719.66;4989900;28;20097;-64
2021/07/26 01:57:56;;;;;;;5.32;4.47;;;;;;;18.05;68.25;100712.13;5015107;28;20045;-62
2021/07/26 02:00:21;;;;;;;7.88;4.10;;;;;;;18.21;67.21;100706.19;5024295;28;20030;-67
2021/07/26 02:02:47;;;;;;;5.80;4.32;;;;;;;18.37;66.49;100698.50;5032191;28;20029;-64
2021/07/26 02:05:13;;;;;;;7.55;3.78;;;;;;;18.69;65.73;100713.56;5031821;28;20030;-68
2021/07/26 02:07:38;;;;;;;9.45;4.05;;;;;;;18.64;65.56;100707.41;5032104;28;20107;-71
2021/07/26 02:10:04;;;;;;;8.05;4.30;;;;;;;18.55;65.56;100705.59;5014535;28;20167;-68
2021/07/26 02:12:29;;;;;;;6.70;4.35;;;;;;;18.53;65.66;100713.44;5012389;28;20116;-65
2021/07/26 02:14:55;;;;;;;8.73;3.80;;;;;;;18.22;66.82;100721.00;5012436;28;20021;-65
2021/07/26 02:17:20;;;;;;;5.75;3.58;;;;;;;17.69;69.13;100713.47;5012184;28;20443;-65
2021/07/26 02:19:46;;;;;;;12.02;4.88;;;;;;;17.36;71.19;100722.59;5012229;28;20117;-69
2021/07/26 02:22:11;;;;;;;7.50;4.00;;;;;;;17.54;70.63;100721.97;5012372;28;20116;-65
2021/07/26 02:24:36;;;;;;;9.55;3.85;;;;;;;17.58;70.45;100724.66;5030657;28;20052;-70
2021/07/26 02:27:04;;;;;;;5.70;3.83;;;;;;;17.59;70.00;100715.94;5031825;28;20109;-70
2021/07/26 02:29:30;;;;;;;7.38;4.00;;;;;;;17.57;70.05;100720.28;5031722;28;20029;-64
2021/07/26 02:31:55;;;;;;;5.35;3.97;;;;;;;17.78;69.33;100718.78;5031692;28;20025;-65
2021/07/26 02:34:20;;;;;;;7.00;3.83;;;;;;;17.87;69.13;100718.88;5030848;28;20059;-70
2021/07/26 02:36:46;;;;;;;6.63;4.13;;;;;;;18.17;67.82;100711.38;5031385;28;20435;-66
2021/07/26 02:39:11;;;;;;;8.20;3.95;;;;;;;18.52;65.81;100719.53;5031947;28;20079;-65
2021/07/26 02:41:37;;;;;;;8.82;3.88;;;;;;;18.74;64.41;100724.91;5014032;28;20472;-65
2021/07/26 02:44:03;;;;;;;6.07;3.45;;;;;;;18.90;63.45;100716.38;5031744;28;20017;-65
2021/07/26 02:46:28;;;;;;;12.15;4.07;;;;;;;18.97;62.65;100714.66;5031559;28;20452;-70
2021/07/26 02:48:53;;;;;;;7.95;4.13;;;;;;;19.04;61.85;100720.78;5031434;28;20380;-65
2021/07/26 02:51:19;;;;;;;7.68;3.90;;;;;;;18.75;62.33;100693.56;5031636;28;20029;-65
2021/07/26 02:53:44;;;;;;;9.98;4.03;;;;;;;18.99;62.10;100714.66;4997544;28;20080;-65
2021/07/26 02:56:11;;;;;;;9.23;4.25;;;;;;;19.16;61.60;100723.47;5031470;28;20483;-64
2021/07/26 02:58:36;;;;;;;6.15;3.80;;;;;;;19.00;61.63;100730.38;5031558;28;20076;-65
2021/07/26 03:01:02;;;;;;;7.35;4.28;;;;;;;17.77;66.03;100709.22;5031690;28;20033;-65
2021/07/26 03:03:28;;;;;;;13.20;5.20;;;;;;;17.72;67.08;100727.44;5031459;28;20026;-68
2021/07/26 03:05:53;;;;;;;8.82;3.80;;;;;;;17.40;68.15;100727.91;5031308;28;20032;-64
2021/07/26 03:08:19;;;;;;;9.98;4.18;;;;;;;16.88;69.59;100729.75;5031494;28;20036;-65
2021/07/26 03:10:44;;;;;;;8.93;4.10;;;;;;;16.91;69.69;100732.38;5031587;28;20029;-65
2021/07/26 03:13:10;;;;;;;8.85;4.15;;;;;;;17.29;67.74;100732.97;5031243;28;20041;-65
2021/07/26 03:15:36;;;;;;;12.63;4.35;;;;;;;17.50;66.12;100699.31;5031317;28;20025;-65
2021/07/26 03:18:02;;;;;;;9.80;4.45;;;;;;;17.71;65.40;100701.31;5031142;28;20130;-66
2021/07/26 03:20:27;;;;;;;9.32;4.20;;;;;;;18.17;64.49;100737.50;5031328;28;20086;-64
2021/07/26 03:22:59;;;;;;;7.40;4.25;;;;;;;18.35;63.47;100736.81;5031328;28;20034;-65
2021/07/26 03:25:29;;;;;;;9.90;4.07;;;;;;;18.51;62.71;100733.47;5031379;28;20018;-64
2021/07/26 03:27:56;;;;;;;8.43;4.20;;;;;;;18.61;61.25;100741.41;5013291;28;20365;-69
2021/07/26 03:30:21;;;;;;;11.00;4.68;;;;;;;18.71;60.50;100740.59;5011434;28;20104;-64
2021/07/26 03:32:47;;;;;;;8.63;3.95;;;;;;;18.53;60.54;100703.00;5011269;28;20597;-69
2021/07/26 03:35:15;;;;;;;9.38;4.15;;;;;;;18.85;60.07;100735.47;5011617;28;20101;-65
2021/07/26 03:37:40;;;;;;;9.57;3.95;;;;;;;18.83;59.77;100740.69;5011532;28;20037;-64
2021/07/26 03:40:07;;;;;;;8.38;4.22;;;;;;;18.72;58.98;100697.91;5011389;28;20030;-65
2021/07/26 03:42:34;;;;;;;12.35;4.28;;;;;;;18.95;59.10;100733.84;5011330;28;20028;-65
2021/07/26 03:44:59;;;;;;;14.80;3.83;;;;;;;19.01;58.78;100741.72;5013120;28;20030;-64
2021/07/26 03:47:25;;;;;;;14.02;4.60;;;;;;;19.10;59.09;100744.38;5015036;28;20109;-65
2021/07/26 03:49:50;;;;;;;12.10;4.70;;;;;;;18.22;61.73;100710.56;5015207;28;20030;-65
2021/07/26 03:52:16;;;;;;;17.83;5.32;;;;;;;17.46;66.00;100734.94;5015095;28;20096;-69
2021/07/26 03:54:41;;;;;;;9.05;3.65;;;;;;;17.77;64.89;100745.78;5014933;28;20046;-69
2021/07/26 03:57:07;;;;;;;13.02;4.18;;;;;;;18.16;63.95;100748.84;5014872;28;20030;-65
2021/07/26 03:59:32;;;;;;;7.78;3.75;;;;;;;17.54;65.57;100716.75;5015512;28;20396;-65
2021/07/26 04:01:58;;;;;;;7.00;3.90;;;;;;;17.32;67.14;100752.13;5014738;28;20017;-65
2021/07/26 04:04:24;;;;;;;9.90;4.00;;;;;;;17.28;67.04;100741.69;4997327;28;20507;-65
2021/07/26 04:06:54;;;;;;;9.20;4.40;;;;;;;17.74;65.44;100738.75;5014818;28;20034;-65
2021/07/26 04:09:21;;;;;;;9.65;3.90;;;;;;;18.07;64.71;100744.38;5014853;28;20061;-65
2021/07/26 04:11:51;;;;;;;8.57;3.88;;;;;;;18.30;63.93;100743.75;5014740;28;20470;-68
2021/07/26 04:14:18;;;;;;;;;;;;;;;18.40;63.55;100754.28;5015072;28;20034;-65
2021/07/26 04:16:43;;;;;;;6.40;4.57;;;;;;;18.41;63.46;100756.03;5014441;28;19921;-65
2021/07/26 04:19:11;;;;;;;7.85;3.65;;;;;;;18.57;63.25;100769.25;5014620;28;20472;-69
2021/07/26 04:21:36;;;;;;;10.68;4.30;;;;;;;17.71;66.45;100767.44;5014865;28;20035;-67
2021/07/26 04:24:05;;;;;;;12.25;5.50;;;;;;;17.14;68.76;100770.16;5014457;28;20029;-64
2021/07/26 04:26:30;;;;;;;19.00;6.30;;;;;;;16.70;70.30;100739.03;5014352;28;20040;-63
2021/07/26 04:28:56;;;;;;;10.95;4.65;;;;;;;17.28;69.28;100770.38;5014149;28;20109;-67
2021/07/26 04:31:22;;;;;;;9.65;5.43;;;;;;;17.58;68.47;100768.16;5014167;28;20047;-65
2021/07/26 04:33:49;;;;;;;10.45;5.60;;;;;;;17.57;68.18;100769.00;5014258;28;20542;-65
2021/07/26 04:36:14;;;;;;;8.68;4.63;;;;;;;17.45;67.87;100741.88;5014328;28;20033;-65
2021/07/26 04:38:40;;;;;;;13.93;5.15;;;;;;;17.92;66.94;100771.19;5014389;28;20440;-69
2021/07/26 04:41:05;;;;;;;12.90;5.53;;;;;;;17.98;68.51;100786.06;5013982;28;20476;-65
2021/07/26 04:43:31;;;;;;;12.75;6.10;;;;;;;18.02;70.06;100803.53;5013850;28;20108;-66
2021/07/26 04:45:56;;;;;;;11.13;5.20;;;;;;;18.18;68.87;100794.13;5014249;28;20040;-69
2021/07/26 04:48:22;;;;;;;12.55;5.50;;;;;;;18.01;68.01;100766.09;5014072;28;20022;-65
2021/07/26 04:50:51;;;;;;;13.40;5.82;;;;;;;18.17;68.81;100808.06;5014067;28;20092;-65
2021/07/26 04:53:16;;;;;;;11.90;5.50;;;;;;;18.05;70.03;100809.66;5013800;28;20040;-63
2021/07/26 04:55:42;;;;;;;8.40;4.80;;;;;;;18.15;70.28;100807.19;5020989;28;20029;-65
2021/07/26 04:58:07;;;;;;;11.35;4.80;;;;;;;18.36;69.62;100798.69;5033349;28;20031;-68
2021/07/26 05:00:33;;;;;;;10.55;4.97;;;;;;;18.55;69.30;100800.59;5033541;28;20101;-65
2021/07/26 05:02:58;;;;;;;8.25;4.95;;;;;;;18.90;68.18;100812.25;5033718;28;20029;-65
2021/07/26 05:05:24;;;;;;;11.63;5.70;;;;;;;18.83;67.74;100756.41;5033481;28;20021;-65
2021/07/26 05:07:49;;;;;;;10.15;4.88;;;;;;;19.19;66.63;100770.63;5033435;28;20025;-65
2021/07/26 05:10:15;;;;;;;9.88;4.78;;;;;;;19.62;65.82;100811.00;5033312;28;20021;-68
2021/07/26 05:12:42;;;;;;;12.80;5.05;;;;;;;19.85;64.99;100806.78;5033298;28;20521;-66
2021/07/26 05:15:09;;;;;;;10.57;5.07;;;;;;;19.99;64.73;100812.06;5033302;28;20028;-64
2021/07/26 05:17:35;;;;;;;16.30;5.72;;;;;;;20.12;64.40;100810.34;5033362;28;20124;-65
2021/07/26 05:20:00;;;;;;;12.75;5.63;;;;;;;20.34;63.78;100811.28;5033430;28;20528;-65
2021/07/26 05:22:26;;;;;;;8.63;6.13;;;;;;;20.46;63.62;100813.09;5033246;28;20435;-65
2021/07/26 05:24:51;;;;;;;18.67;6.50;;;;;;;20.57;63.65;100810.44;5033195;28;20056;-64
2021/07/26 05:27:17;;;;;;;10.32;5.65;;;;;;;20.57;63.59;100805.19;5032825;28;20038;-65
2021/07/26 05:29:43;;;;;;;10.35;6.03;;;;;;;20.76;63.03;100798.28;5033350;28;20396;-65
2021/07/26 05:32:09;;;;;;;6.07;4.68;;;;;;;20.63;62.90;100796.47;5033222;28;20029;-65
2021/07/26 05:34:34;;;;;;;6.97;4.55;;;;;;;20.71;62.73;100797.41;5032615;28;20040;-65
2021/07/26 05:37:00;;;;;;;11.00;5.28;;;;;;;20.69;63.26;100780.75;5032924;28;20095;-65
2021/07/26 05:39:26;;;;;;;9.43;4.82;;;;;;;20.92;63.81;100799.16;5032713;28;20025;-65
2021/07/26 05:41:53;;;;;;;16.52;5.78;;;;;;;21.12;62.23;100785.09;5032530;28;20096;-65
2021/07/26 05:44:18;;;;;;;9.35;5.57;;;;;;;21.22;61.95;100768.47;5032955;28;20112;-68
2021/07/26 05:46:44;;;;;;;12.00;5.75;;;;;;;21.49;61.03;100792.91;5032789;28;20032;-65
2021/07/26 05:49:09;;;;;;;7.47;4.47;;;;;;;21.24;60.50;100737.81;5032441;28;20029;-65
2021/07/26 05:51:35;;;;;;;12.50;4.90;;;;;;;21.69;60.08;100799.88;5030468;28;20072;-64
2021/07/26 05:54:00;;;;;;;10.63;4.72;;;;;;;21.73;60.13;100784.13;5032642;28;20488;-64
2021/07/26 05:56:28;;;;;;;7.68;4.82;;;;;;;21.83;59.25;100781.44;5032371;28;20033;-64
2021/07/26 05:58:54;;;;;;;8.65;4.82;;;;;;;21.83;59.52;100747.25;5032608;28;20112;-65
2021/07/26 06:03:49;;;;;;;12.02;5.05;;;;;;;22.08;58.86;100756.78;5028981;28;20030;-65
2021/07/26 06:06:16;;;;;;;11.85;4.78;;;;;;;22.38;59.44;100786.41;5012521;28;20030;-66
2021/07/26 06:08:42;;;;;;;9.40;4.75;;;;;;;22.42;58.26;100803.06;5012683;28;20030;-67
2021/07/26 06:11:07;;;;;;;11.75;4.50;;;;;;;22.40;58.22;100775.88;5012591;28;20033;-65
2021/07/26 06:13:33;;;;;;;9.85;5.35;;;;;;;22.66;58.04;100802.00;5012562;28;20037;-65
2021/07/26 06:15:58;;;;;;;7.53;4.30;;;;;;;22.74;57.67;100802.81;5012665;28;20022;-64
2021/07/26 06:18:26;;;;;;;8.55;4.93;;;;;;;22.84;59.07;100794.81;5012500;28;20056;-65
2021/07/26 06:20:52;;;;;;;8.90;4.30;;;;;;;22.78;57.34;100793.13;4993817;28;20041;-65
2021/07/26 06:23:20;;;;;;;12.38;4.43;;;;;;;22.87;56.92;100794.81;5012332;28;20108;-67
2021/07/26 06:25:45;;;;;;;7.63;4.25;;;;;;;22.93;55.79;100811.41;5012131;28;20244;-65
2021/07/26 06:28:11;;;;;;;8.02;4.13;;;;;;;23.01;55.54;100800.81;5012149;28;20456;-65
2021/07/26 06:30:36;;;;;;;9.45;4.72;;;;;;;23.08;57.41;100799.88;5012035;28;20045;-66
2021/07/26 06:33:01;;;;;;;7.85;4.47;;;;;;;23.06;56.27;100782.34;5012266;28;20240;-64
2021/07/26 06:35:27;;;;;;;11.23;4.53;;;;;;;23.33;55.70;100790.88;5012192;28;20480;-65
2021/07/26 06:37:52;;;;;;;10.07;4.13;;;;;;;23.50;54.97;100791.56;5009892;28;20038;-65
2021/07/26 06:40:18;;;;;;;9.52;4.43;;;;;;;23.69;54.60;100786.94;5011752;28;20033;-65
2021/07/26 06:42:43;;;;;;;13.60;5.28;;;;;;;23.69;54.36;100765.88;5012050;28;20396;-65
2021/07/26 06:45:11;;;;;;;12.13;4.45;;;;;;;23.98;52.89;100798.91;5011761;28;20025;-66
2021/07/26 06:47:36;;;;;;;8.80;3.83;;;;;;;23.96;52.84;100800.69;5011824;28;20030;-65
2021/07/26 06:50:03;;;;;;;12.57;3.70;;;;;;;23.85;53.43;100792.00;5012836;28;20048;-70
2021/07/26 06:52:29;;;;;;;7.93;4.35;;;;;;;23.97;53.72;100791.03;5031530;28;20030;-66
2021/07/26 06:54:55;;;;;;;6.35;4.38;;;;;;;24.00;54.25;100793.59;5031588;28;20060;-71
2021/07/26 06:57:20;;;;;;;8.88;3.85;;;;;;;24.18;53.51;100795.13;4996566;28;20045;-65
2021/07/26 06:59:46;;;;;;;9.90;4.22;;;;;;;24.25;53.63;100799.44;5031537;28;20286;-67
2021/07/26 07:02:12;;;;;;;8.98;3.83;;;;;;;24.29;52.40;100797.59;5014066;28;20029;-65
2021/07/26 07:04:38;;;;;;;8.27;4.38;;;;;;;24.41;52.67;100796.56;5031376;28;20033;-64
2021/07/26 07:07:05;;;;;;;16.83;4.97;;;;;;;24.52;53.04;100798.16;5024148;28;20407;-64
2021/07/26 07:09:34;;;;;;;9.82;3.80;;;;;;;24.51;52.24;100770.00;5025120;28;20503;-64
2021/07/26 07:12:00;;;;;;;8.30;3.83;;;;;;;24.79;52.06;100800.38;5017264;28;20034;-67
2021/07/26 07:14:25;;;;;;;5.90;3.50;;;;;;;24.78;50.92;100773.09;5036606;28;20102;-67
2021/07/26 07:16:52;;;;;;;6.07;3.67;;;;;;;25.03;50.50;100804.34;5040466;28;20021;-67
2021/07/26 07:19:18;;;;;;;12.05;4.00;;;;;;;25.06;50.65;100792.88;5039941;28;20032;-67
2021/07/26 07:21:43;;;;;;;6.40;3.50;;;;;;;25.01;50.85;100791.19;5042227;28;20025;-67
2021/07/26 07:24:09;;;;;;;11.02;3.92;;;;;;;24.89;49.90;100775.56;5037037;28;20029;-68
2021/07/26 07:26:35;;;;;;;5.70;4.07;;;;;;;24.99;51.17;100800.91;5006176;28;20388;-67
2021/07/26 07:29:02;;;;;;;5.10;3.80;;;;;;;24.98;52.97;100800.94;5041520;28;20063;-67
2021/07/26 07:31:27;;;;;;;7.05;3.70;;;;;;;24.94;50.00;100800.13;5039915;28;20147;-64
2021/07/26 07:33:57;;;;;;;10.18;3.90;;;;;;;25.16;49.86;100799.72;5040729;28;20246;-67
2021/07/26 07:36:24;;;;;;;7.95;4.38;;;;;;;25.39;49.59;100796.69;5030807;28;20037;-68
2021/07/26 07:38:49;;;;;;;10.18;3.75;;;;;;;25.59;48.24;100783.06;5041831;28;20107;-66
2021/07/26 07:41:16;;;;;;;4.65;3.25;;;;;;;25.65;47.19;100784.72;5037291;28;20112;-65
2021/07/26 07:43:42;;;;;;;6.55;3.63;;;;;;;25.45;47.07;100754.28;5006871;28;20028;-67
2021/07/26 07:46:08;;;;;;;5.70;3.40;;;;;;;25.81;47.63;100793.22;5033269;28;20033;-66
2021/07/26 07:48:34;;;;;;;13.35;3.80;;;;;;;25.85;47.61;100786.94;5041129;28;20407;-71
2021/07/26 07:51:00;;;;;;;10.45;3.88;;;;;;;25.41;47.67;100786.06;5040781;28;20025;-68
2021/07/26 07:53:26;;;;;;;6.43;3.42;;;;;;;25.50;47.53;100793.84;5039185;28;20533;-66
2021/07/26 07:55:52;;;;;;;9.55;3.88;;;;;;;25.67;46.83;100791.72;5041383;28;20029;-68
2021/07/26 07:58:18;;;;;;;7.75;3.42;;;;;;;25.86;45.92;100791.34;5023050;28;20394;-65
2021/07/26 08:00:44;;;;;;;5.68;3.35;;;;;;;25.94;45.11;100794.66;5039831;28;20032;-65
2021/07/26 08:03:10;;;;;;;7.22;3.15;;;;;;;26.03;44.74;100788.28;5041408;28;20021;-63
2021/07/26 08:05:35;;;;;;;5.72;3.08;;;;;;;26.16;44.85;100784.50;5036562;28;20032;-65
2021/07/26 08:08:00;;;;;;;6.03;3.00;;;;;;;26.28;44.08;100778.06;5028616;28;20124;-68
2021/07/26 08:10:26;;;;;;;6.78;3.75;;;;;;;26.43;44.43;100792.72;5030849;28;20045;-64
2021/07/26 08:12:51;;;;;;;6.90;3.20;;;;;;;26.19;43.80;100788.84;5030691;28;20107;-64
2021/07/26 08:15:18;;;;;;;7.70;3.05;;;;;;;26.26;43.92;100787.81;5033053;28;20032;-64
2021/07/26 08:17:45;;;;;;;27.42;4.85;;;;;;;26.43;44.27;100789.19;5022443;28;20099;-64
2021/07/26 08:20:17;;;;;;;11.68;4.10;;;;;;;26.71;43.38;100793.81;5040579;28;20029;-67
2021/07/26 08:22:43;;;;;;;6.05;3.08;;;;;;;26.79;41.59;100790.09;5001195;28;20938;-65
2021/07/26 08:25:13;;;;;;;5.38;3.25;;;;;;;26.92;39.66;100784.50;5029282;28;20053;-65
2021/07/26 08:27:55;;;;;;;6.60;3.08;;;;;;;26.99;39.96;100774.59;5008278;28;20030;-67
2021/07/26 08:30:30;;;;;;;4.57;2.97;;;;;;;27.18;38.97;100783.78;5027447;28;20191;-67
2021/07/26 08:32:56;;;;;;;7.85;3.00;;;;;;;27.20;39.60;100774.00;5036237;28;20030;-67
2021/07/26 08:35:22;;;;;;;8.25;3.50;;;;;;;26.84;40.45;100744.06;5044325;28;20032;-66
2021/07/26 08:37:49;;;;;;;7.72;3.30;;;;;;;27.11;39.77;100780.41;5039716;28;20475;-66
2021/07/26 08:40:16;;;;;;;6.85;3.50;;;;;;;27.18;38.86;100780.25;5034338;28;20033;-67
2021/07/26 08:42:41;;;;;;;8.80;3.17;;;;;;;27.08;39.16;100769.91;5034575;28;20036;-65
2021/07/26 08:45:09;;;;;;;9.80;3.60;;;;;;;27.24;37.73;100774.78;5037287;28;20025;-67
2021/07/26 08:47:38;;;;;;;7.70;3.60;;;;;;;27.41;38.37;100766.41;5035953;28;20034;-66
2021/07/26 08:50:05;;;;;;;3.78;2.50;;;;;;;27.36;37.10;100768.28;5040360;28;20029;-66
2021/07/26 08:53:04;;;;;;;6.28;3.40;;;;;;;27.33;36.93;100765.72;5043565;28;20087;-67
2021/07/26 08:55:32;;;;;;;7.93;3.53;;;;;;;27.48;35.84;100757.38;4944206;29;20054;-68
2021/07/26 08:57:58;;;;;;;7.90;2.90;;;;;;;27.53;35.72;100766.06;4942377;28;20062;-68
2021/07/26 09:00:24;;;;;;;4.95;3.38;;;;;;;27.38;35.83;100771.78;4941174;29;20041;-69
2021/07/26 09:02:53;;;;;;;6.25;3.13;;;;;;;27.62;36.79;100766.72;4943354;29;20063;-66
2021/07/26 09:05:20;;;;;;;16.75;4.10;;;;;;;27.75;36.77;100757.44;4942165;29;20044;-66
2021/07/26 09:07:48;;;;;;;5.45;3.13;;;;;;;27.62;36.75;100738.38;4942753;29;20036;-67
2021/07/26 09:10:24;;;;;;;6.00;3.00;;;;;;;27.99;36.84;100769.13;4942684;28;20050;-64
2021/07/26 09:12:55;;;;;;;5.60;3.38;;;;;;;28.11;36.38;100754.59;4944848;29;20054;-65
2021/07/26 09:15:37;;;;;;;9.73;3.25;;;;;;;28.38;38.33;100759.97;4942102;28;20443;-68
2021/07/26 09:18:07;;;;;;;6.70;3.05;;;;;;;28.41;35.86;100734.16;4941894;29;20542;-69
2021/07/26 09:20:34;;;;;;;8.65;3.80;;;;;;;28.71;36.31;100755.34;4942592;29;20043;-65
2021/07/26 09:23:08;;;;;;;12.88;3.80;;;;;;;28.78;34.76;100755.97;4943794;29;20034;-71
2021/07/26 09:25:34;;;;;;;9.07;3.42;;;;;;;28.79;36.80;100738.25;4943593;29;20519;-68
2021/07/26 09:28:03;;;;;;;8.38;3.80;;;;;;;28.91;38.38;100759.06;4940095;29;20648;-65
2021/07/26 09:30:51;;;;;;;6.90;3.03;;;;;;;28.99;35.39;100751.69;4950640;29;20030;-67
2021/07/26 09:33:30;;;;;;;5.30;3.50;;;;;;;29.13;34.64;100755.66;4993464;28;20031;-66
2021/07/26 09:36:13;;;;;;;5.40;3.10;;;;;;;28.67;33.75;100718.25;4993872;28;20165;-68
2021/07/26 09:38:57;;;;;;;5.68;3.28;;;;;;;29.14;33.36;100744.97;4993881;28;20034;-66
2021/07/26 09:41:43;;;;;;;5.68;3.03;;;;;;;29.40;36.15;100739.63;4993650;28;20481;-66
2021/07/26 09:44:09;;;;;;;5.38;3.20;;;;;;;29.53;34.63;100739.13;4993858;28;20041;-65
2021/07/26 09:46:38;;;;;;;7.03;3.35;;;;;;;29.51;37.18;100740.97;4993565;28;20030;-69
2021/07/26 09:49:11;;;;;;;;;;;;;;;29.62;34.19;100737.91;4993901;28;20038;-68
2021/07/26 09:51:37;;;;;;;4.50;2.55;;;;;;;29.74;32.84;100731.25;4995837;28;19905;-69
2021/07/26 09:54:02;;;;;;;6.93;3.20;;;;;;;29.81;31.38;100729.22;4999193;28;20046;-68
2021/07/26 09:56:32;;;;;;;5.38;2.67;;;;;;;29.99;30.55;100723.16;5036932;28;20430;-66
2021/07/26 09:58:57;;;;;;;4.35;3.05;;;;;;;30.09;30.87;100726.31;5040748;28;20026;-67
2021/07/26 10:01:23;;;;;;;6.18;3.00;;;;;;;30.13;31.32;100727.97;5027544;28;20113;-70
2021/07/26 10:03:51;;;;;;;4.60;2.72;;;;;;;30.36;34.93;100726.13;5026274;28;20495;-69
2021/07/26 10:06:18;;;;;;;4.90;3.13;;;;;;;30.63;30.31;100726.78;5028827;28;20078;-69
2021/07/26 10:08:44;;;;;;;6.50;2.78;;;;;;;30.79;28.91;100719.00;5027544;28;20566;-69
2021/07/26 10:11:10;;;;;;;7.40;3.08;;;;;;;30.87;28.17;100716.00;5030065;28;20025;-71
2021/07/26 10:13:40;;;;;;;4.80;2.85;;;;;;;30.95;27.96;100715.66;5029442;28;20395;-65
2021/07/26 10:16:05;;;;;;;;;;;;;;;31.02;28.19;100711.78;5010571;28;20022;-68
2021/07/26 10:18:30;;;;;;;9.73;2.75;;;;;;;30.94;27.70;100713.91;5029795;28;20012;-69
2021/07/26 10:21:07;;;;;;;5.43;2.67;;;;;;;30.73;28.19;100707.72;5024814;28;20038;-65
2021/07/26 10:23:35;;;;;;;4.07;2.33;;;;;;;30.89;28.30;100708.78;5026265;28;20021;-67
2021/07/26 10:26:05;;;;;;;6.53;2.88;;;;;;;31.09;28.78;100709.72;5024902;28;20029;-65
2021/07/26 10:28:36;;;;;;;8.85;2.72;;;;;;;31.22;28.33;100704.72;5029010;28;20017;-66
2021/07/26 10:31:22;;;;;;;7.13;3.20;;;;;;;31.07;27.70;100704.47;5023846;28;20033;-67
2021/07/26 10:34:08;;;;;;;5.93;2.70;;;;;;;31.59;26.01;100700.31;5023874;28;20404;-68
2021/07/26 10:36:42;;;;;;;5.05;2.60;;;;;;;31.69;24.25;100692.75;5027656;28;20087;-68
2021/07/26 10:39:14;;;;;;;7.70;2.95;;;;;;;31.70;23.33;100691.81;5025806;28;20090;-67
2021/07/26 10:41:42;;;;;;;10.85;2.78;;;;;;;31.98;27.80;100694.03;5023242;28;20026;-69
2021/07/26 10:44:29;;;;;;;6.97;2.65;;;;;;;32.15;25.89;100694.97;5022495;28;20091;-70
2021/07/26 10:46:58;;;;;;;6.25;1.98;;;;;;;32.21;26.64;100690.22;4931118;29;20489;-63
2021/07/26 10:49:50;;;;;;;6.07;2.08;;;;;;;31.88;22.42;100687.41;4930793;29;20043;-66
2021/07/26 10:52:21;;;;;;;5.82;2.13;;;;;;;32.03;22.46;100686.66;4930172;29;20039;-67
2021/07/26 10:54:48;;;;;;;6.30;2.25;;;;;;;32.38;23.99;100678.69;4929041;29;20087;-68
2021/07/26 10:57:14;;;;;;;8.05;2.13;;;;;;;32.55;24.96;100676.94;4930227;29;20107;-64
2021/07/26 11:00:18;;;;;;;7.03;2.50;;;;;;;32.59;22.10;100671.34;4930138;29;20059;-66
2021/07/26 11:02:46;;;;;;;5.07;2.00;;;;;;;32.92;22.85;100676.84;4888615;29;20048;-67
2021/07/26 11:05:26;;;;;;;5.50;2.03;;;;;;;32.88;22.27;100676.16;4920689;29;20129;-67
2021/07/26 11:08:13;;;;;;;5.55;2.10;;;;;;;32.84;22.39;100669.25;4929453;29;20027;-69
2021/07/26 11:10:44;;;;;;;4.78;2.35;;;;;;;33.08;22.69;100663.50;4928983;29;20137;-66
2021/07/26 11:13:10;;;;;;;4.90;2.00;;;;;;;32.95;23.29;100656.16;4927755;29;20036;-69
2021/07/26 11:15:52;;;;;;;4.38;1.98;;;;;;;33.04;18.82;100662.81;4913291;29;20461;-69
2021/07/26 11:18:28;;;;;;;4.05;2.13;;;;;;;33.10;21.17;100650.91;4929847;29;20035;-67
2021/07/26 11:20:58;;;;;;;4.25;1.83;;;;;;;33.40;20.00;100667.13;4928724;29;20094;-66
2021/07/26 11:23:44;;;;;;;4.28;1.80;;;;;;;33.48;21.35;100666.69;4948766;28;20046;-67
2021/07/26 11:26:32;;;;;;;5.13;2.10;;;;;;;33.59;18.46;100656.22;4966961;28;20421;-69
2021/07/26 11:29:03;;;;;;;9.45;2.50;;;;;;;33.33;20.74;100661.22;4924053;29;20043;-66
2021/07/26 11:31:31;;;;;;;10.00;2.20;;;;;;;33.21;19.19;100654.72;4921636;29;20479;-70
2021/07/26 11:34:11;;;;;;;11.07;2.37;;;;;;;33.29;19.82;100653.47;4925911;29;20075;-67